<?xml version="1.0" encoding="UTF-8" standalone="no" ?>
<gpx xmlns="http://www.topografix.com/GPX/1/1" xmlns:xsi="http://www.w3.org/2001/XMLSchema-instance" xsi:schemaLocation="http://www.topografix.com/GPX/1/1 http://www.topografix.com/GPX/1/1/gpx.xsd" version="1.1" creator="VisuGPX - https://www.visugpx.com">
  <metadata>
    <name>ligne 5 Thônex-Vallard - Aéroport_Sans titre - Trajet</name>
  </metadata>
  <trk>
    <name><![CDATA[ligne 5 Thônex-Vallard - Aéroport_Sans titre - Trajet]]></name>
    <trkseg>
      <trkpt lat="46.18915" lon="6.20003">
        <ele>410</ele>
        <time>2020-09-13T06:25:33.000Z</time>
      </trkpt>
      <trkpt lat="46.18909" lon="6.20021">
        <ele>410.2</ele>
        <time>2020-09-13T06:25:35.898Z</time>
      </trkpt>
      <trkpt lat="46.18908" lon="6.20027">
        <ele>410.2</ele>
        <time>2020-09-13T06:25:36.692Z</time>
      </trkpt>
      <trkpt lat="46.18909" lon="6.20033">
        <ele>410.3</ele>
        <time>2020-09-13T06:25:37.673Z</time>
      </trkpt>
      <trkpt lat="46.18912" lon="6.20038">
        <ele>410.3</ele>
        <time>2020-09-13T06:25:38.532Z</time>
      </trkpt>
      <trkpt lat="46.18915" lon="6.2004">
        <ele>410.3</ele>
        <time>2020-09-13T06:25:39.263Z</time>
      </trkpt>
      <trkpt lat="46.18919" lon="6.20039">
        <ele>411.7</ele>
        <time>2020-09-13T06:25:41.676Z</time>
      </trkpt>
      <trkpt lat="46.18924" lon="6.20033">
        <ele>411.7</ele>
        <time>2020-09-13T06:25:42.933Z</time>
      </trkpt>
      <trkpt lat="46.18928" lon="6.20026">
        <ele>411.6</ele>
        <time>2020-09-13T06:25:43.828Z</time>
      </trkpt>
      <trkpt lat="46.18997" lon="6.19855">
        <ele>413.8</ele>
        <time>2020-09-13T06:26:12.665Z</time>
      </trkpt>
      <trkpt lat="46.19025" lon="6.19776">
        <ele>415.2</ele>
        <time>2020-09-13T06:26:26.688Z</time>
      </trkpt>
      <trkpt lat="46.19039" lon="6.19739">
        <ele>414.7</ele>
        <time>2020-09-13T06:26:30.578Z</time>
      </trkpt>
      <trkpt lat="46.1905" lon="6.19707">
        <ele>414.7</ele>
        <time>2020-09-13T06:26:35.048Z</time>
      </trkpt>
      <trkpt lat="46.19061" lon="6.1967">
        <ele>414.9</ele>
        <time>2020-09-13T06:26:40.376Z</time>
      </trkpt>
      <trkpt lat="46.19069" lon="6.19634">
        <ele>413.2</ele>
        <time>2020-09-13T06:26:42.567Z</time>
      </trkpt>
      <trkpt lat="46.19078" lon="6.19591">
        <ele>412.8</ele>
        <time>2020-09-13T06:26:46.869Z</time>
      </trkpt>
      <trkpt lat="46.19082" lon="6.1955">
        <ele>410.4</ele>
        <time>2020-09-13T06:26:49.434Z</time>
      </trkpt>
      <trkpt lat="46.19084" lon="6.19504">
        <ele>409.7</ele>
        <time>2020-09-13T06:26:53.299Z</time>
      </trkpt>
      <trkpt lat="46.19085" lon="6.19453">
        <ele>408.3</ele>
        <time>2020-09-13T06:26:56.937Z</time>
      </trkpt>
      <trkpt lat="46.19082" lon="6.1941">
        <ele>404</ele>
        <time>2020-09-13T06:26:59.638Z</time>
      </trkpt>
      <trkpt lat="46.19066" lon="6.1922">
        <ele>402.7</ele>
        <time>2020-09-13T06:27:18.575Z</time>
      </trkpt>
      <trkpt lat="46.19064" lon="6.19192">
        <ele>402.5</ele>
        <time>2020-09-13T06:27:21.418Z</time>
      </trkpt>
      <trkpt lat="46.19063" lon="6.19174">
        <ele>402.5</ele>
        <time>2020-09-13T06:27:23.670Z</time>
      </trkpt>
      <trkpt lat="46.19063" lon="6.1916">
        <ele>402.4</ele>
        <time>2020-09-13T06:27:25.053Z</time>
      </trkpt>
      <trkpt lat="46.19062" lon="6.19134">
        <ele>402.2</ele>
        <time>2020-09-13T06:27:27.632Z</time>
      </trkpt>
      <trkpt lat="46.19058" lon="6.19098">
        <ele>402</ele>
        <time>2020-09-13T06:27:31.313Z</time>
      </trkpt>
      <trkpt lat="46.19053" lon="6.19072">
        <ele>402.2</ele>
        <time>2020-09-13T06:27:35.064Z</time>
      </trkpt>
      <trkpt lat="46.19047" lon="6.19002">
        <ele>402.4</ele>
        <time>2020-09-13T06:27:44.138Z</time>
      </trkpt>
      <trkpt lat="46.19042" lon="6.1894">
        <ele>401</ele>
        <time>2020-09-13T06:27:48.987Z</time>
      </trkpt>
      <trkpt lat="46.19039" lon="6.18916">
        <ele>400.8</ele>
        <time>2020-09-13T06:27:51.336Z</time>
      </trkpt>
      <trkpt lat="46.19035" lon="6.18891">
        <ele>401</ele>
        <time>2020-09-13T06:27:54.839Z</time>
      </trkpt>
      <trkpt lat="46.19032" lon="6.18866">
        <ele>401.4</ele>
        <time>2020-09-13T06:27:58.913Z</time>
      </trkpt>
      <trkpt lat="46.19025" lon="6.18788">
        <ele>403.7</ele>
        <time>2020-09-13T06:28:14.870Z</time>
      </trkpt>
      <trkpt lat="46.19022" lon="6.18747">
        <ele>405.3</ele>
        <time>2020-09-13T06:28:24.269Z</time>
      </trkpt>
      <trkpt lat="46.19021" lon="6.18711">
        <ele>405.9</ele>
        <time>2020-09-13T06:28:30.102Z</time>
      </trkpt>
      <trkpt lat="46.1902" lon="6.1868">
        <ele>406.2</ele>
        <time>2020-09-13T06:28:34.443Z</time>
      </trkpt>
      <trkpt lat="46.19021" lon="6.18641">
        <ele>407.9</ele>
        <time>2020-09-13T06:28:43.786Z</time>
      </trkpt>
      <trkpt lat="46.19022" lon="6.18614">
        <ele>408.5</ele>
        <time>2020-09-13T06:28:48.568Z</time>
      </trkpt>
      <trkpt lat="46.19025" lon="6.18588">
        <ele>408.8</ele>
        <time>2020-09-13T06:28:52.407Z</time>
      </trkpt>
      <trkpt lat="46.19028" lon="6.18565">
        <ele>409.8</ele>
        <time>2020-09-13T06:28:58.018Z</time>
      </trkpt>
      <trkpt lat="46.19032" lon="6.18538">
        <ele>410.1</ele>
        <time>2020-09-13T06:29:02.063Z</time>
      </trkpt>
      <trkpt lat="46.19036" lon="6.18518">
        <ele>410.2</ele>
        <time>2020-09-13T06:29:04.756Z</time>
      </trkpt>
      <trkpt lat="46.19043" lon="6.1849">
        <ele>412.4</ele>
        <time>2020-09-13T06:29:15.095Z</time>
      </trkpt>
      <trkpt lat="46.19049" lon="6.18465">
        <ele>413.2</ele>
        <time>2020-09-13T06:29:20.662Z</time>
      </trkpt>
      <trkpt lat="46.19057" lon="6.18441">
        <ele>414.3</ele>
        <time>2020-09-13T06:29:26.864Z</time>
      </trkpt>
      <trkpt lat="46.19068" lon="6.18412">
        <ele>417.9</ele>
        <time>2020-09-13T06:29:42.573Z</time>
      </trkpt>
      <trkpt lat="46.1908" lon="6.18385">
        <ele>418.1</ele>
        <time>2020-09-13T06:29:46.909Z</time>
      </trkpt>
      <trkpt lat="46.19094" lon="6.18358">
        <ele>421.5</ele>
        <time>2020-09-13T06:30:03.027Z</time>
      </trkpt>
      <trkpt lat="46.19107" lon="6.18335">
        <ele>421.9</ele>
        <time>2020-09-13T06:30:07.514Z</time>
      </trkpt>
      <trkpt lat="46.1912" lon="6.18313">
        <ele>422.6</ele>
        <time>2020-09-13T06:30:12.828Z</time>
      </trkpt>
      <trkpt lat="46.19143" lon="6.18281">
        <ele>422.3</ele>
        <time>2020-09-13T06:30:17.439Z</time>
      </trkpt>
      <trkpt lat="46.19164" lon="6.18254">
        <ele>421.3</ele>
        <time>2020-09-13T06:30:20.543Z</time>
      </trkpt>
      <trkpt lat="46.19217" lon="6.1819">
        <ele>419.4</ele>
        <time>2020-09-13T06:30:28.472Z</time>
      </trkpt>
      <trkpt lat="46.19244" lon="6.18158">
        <ele>419.2</ele>
        <time>2020-09-13T06:30:34.290Z</time>
      </trkpt>
      <trkpt lat="46.19257" lon="6.1814">
        <ele>419.8</ele>
        <time>2020-09-13T06:30:38.977Z</time>
      </trkpt>
      <trkpt lat="46.19268" lon="6.1812">
        <ele>420.1</ele>
        <time>2020-09-13T06:30:42.736Z</time>
      </trkpt>
      <trkpt lat="46.19281" lon="6.18098">
        <ele>420.3</ele>
        <time>2020-09-13T06:30:46.630Z</time>
      </trkpt>
      <trkpt lat="46.19292" lon="6.18074">
        <ele>421.8</ele>
        <time>2020-09-13T06:30:54.257Z</time>
      </trkpt>
      <trkpt lat="46.19301" lon="6.18052">
        <ele>422.2</ele>
        <time>2020-09-13T06:30:58.282Z</time>
      </trkpt>
      <trkpt lat="46.19309" lon="6.18028">
        <ele>422.6</ele>
        <time>2020-09-13T06:31:02.434Z</time>
      </trkpt>
      <trkpt lat="46.19315" lon="6.18002">
        <ele>423.1</ele>
        <time>2020-09-13T06:31:06.912Z</time>
      </trkpt>
      <trkpt lat="46.19321" lon="6.17977">
        <ele>424.5</ele>
        <time>2020-09-13T06:31:13.896Z</time>
      </trkpt>
      <trkpt lat="46.19327" lon="6.17943">
        <ele>425.1</ele>
        <time>2020-09-13T06:31:19.596Z</time>
      </trkpt>
      <trkpt lat="46.19331" lon="6.17915">
        <ele>426</ele>
        <time>2020-09-13T06:31:25.664Z</time>
      </trkpt>
      <trkpt lat="46.19337" lon="6.17866">
        <ele>425.8</ele>
        <time>2020-09-13T06:31:31.325Z</time>
      </trkpt>
      <trkpt lat="46.19338" lon="6.17841">
        <ele>426.5</ele>
        <time>2020-09-13T06:31:36.320Z</time>
      </trkpt>
      <trkpt lat="46.19339" lon="6.17802">
        <ele>425.8</ele>
        <time>2020-09-13T06:31:39.513Z</time>
      </trkpt>
      <trkpt lat="46.19339" lon="6.17763">
        <ele>425.3</ele>
        <time>2020-09-13T06:31:42.965Z</time>
      </trkpt>
      <trkpt lat="46.19339" lon="6.17699">
        <ele>424</ele>
        <time>2020-09-13T06:31:47.992Z</time>
      </trkpt>
      <trkpt lat="46.19339" lon="6.17657">
        <ele>421.9</ele>
        <time>2020-09-13T06:31:50.567Z</time>
      </trkpt>
      <trkpt lat="46.19339" lon="6.17621">
        <ele>422.6</ele>
        <time>2020-09-13T06:31:56.639Z</time>
      </trkpt>
      <trkpt lat="46.1934" lon="6.17579">
        <ele>422</ele>
        <time>2020-09-13T06:32:00.267Z</time>
      </trkpt>
      <trkpt lat="46.1934" lon="6.17552">
        <ele>421.9</ele>
        <time>2020-09-13T06:32:03.446Z</time>
      </trkpt>
      <trkpt lat="46.19342" lon="6.17524">
        <ele>421.8</ele>
        <time>2020-09-13T06:32:06.665Z</time>
      </trkpt>
      <trkpt lat="46.19344" lon="6.17493">
        <ele>422.1</ele>
        <time>2020-09-13T06:32:11.161Z</time>
      </trkpt>
      <trkpt lat="46.19348" lon="6.17457">
        <ele>422.5</ele>
        <time>2020-09-13T06:32:16.481Z</time>
      </trkpt>
      <trkpt lat="46.19352" lon="6.17422">
        <ele>423.1</ele>
        <time>2020-09-13T06:32:22.135Z</time>
      </trkpt>
      <trkpt lat="46.19359" lon="6.17386">
        <ele>424.3</ele>
        <time>2020-09-13T06:32:30.178Z</time>
      </trkpt>
      <trkpt lat="46.19366" lon="6.17349">
        <ele>424.6</ele>
        <time>2020-09-13T06:32:35.488Z</time>
      </trkpt>
      <trkpt lat="46.19373" lon="6.17324">
        <ele>425.4</ele>
        <time>2020-09-13T06:32:40.990Z</time>
      </trkpt>
      <trkpt lat="46.19381" lon="6.17295">
        <ele>425.6</ele>
        <time>2020-09-13T06:32:45.313Z</time>
      </trkpt>
      <trkpt lat="46.19389" lon="6.17268">
        <ele>426</ele>
        <time>2020-09-13T06:32:49.758Z</time>
      </trkpt>
      <trkpt lat="46.19397" lon="6.17243">
        <ele>426.2</ele>
        <time>2020-09-13T06:32:53.569Z</time>
      </trkpt>
      <trkpt lat="46.19411" lon="6.17208">
        <ele>425.7</ele>
        <time>2020-09-13T06:32:57.164Z</time>
      </trkpt>
      <trkpt lat="46.19436" lon="6.17151">
        <ele>427.2</ele>
        <time>2020-09-13T06:33:09.182Z</time>
      </trkpt>
      <trkpt lat="46.19479" lon="6.17047">
        <ele>429.8</ele>
        <time>2020-09-13T06:33:30.288Z</time>
      </trkpt>
      <trkpt lat="46.19526" lon="6.16933">
        <ele>431.7</ele>
        <time>2020-09-13T06:33:50.650Z</time>
      </trkpt>
      <trkpt lat="46.19551" lon="6.16872">
        <ele>427.1</ele>
        <time>2020-09-13T06:33:55.046Z</time>
      </trkpt>
      <trkpt lat="46.19562" lon="6.16844">
        <ele>426.1</ele>
        <time>2020-09-13T06:33:57.283Z</time>
      </trkpt>
      <trkpt lat="46.19574" lon="6.16812">
        <ele>423.8</ele>
        <time>2020-09-13T06:33:59.481Z</time>
      </trkpt>
      <trkpt lat="46.19585" lon="6.16777">
        <ele>424.3</ele>
        <time>2020-09-13T06:34:05.313Z</time>
      </trkpt>
      <trkpt lat="46.19597" lon="6.16739">
        <ele>423</ele>
        <time>2020-09-13T06:34:08.164Z</time>
      </trkpt>
      <trkpt lat="46.19608" lon="6.16705">
        <ele>422.6</ele>
        <time>2020-09-13T06:34:11.577Z</time>
      </trkpt>
      <trkpt lat="46.19621" lon="6.16658">
        <ele>421.1</ele>
        <time>2020-09-13T06:34:15.046Z</time>
      </trkpt>
      <trkpt lat="46.19629" lon="6.16629">
        <ele>421.1</ele>
        <time>2020-09-13T06:34:19.013Z</time>
      </trkpt>
      <trkpt lat="46.19637" lon="6.16592">
        <ele>420.9</ele>
        <time>2020-09-13T06:34:22.936Z</time>
      </trkpt>
      <trkpt lat="46.1965" lon="6.16522">
        <ele>418.6</ele>
        <time>2020-09-13T06:34:27.849Z</time>
      </trkpt>
      <trkpt lat="46.19658" lon="6.1648">
        <ele>416.8</ele>
        <time>2020-09-13T06:34:30.410Z</time>
      </trkpt>
      <trkpt lat="46.1967" lon="6.16401">
        <ele>414.1</ele>
        <time>2020-09-13T06:34:35.788Z</time>
      </trkpt>
      <trkpt lat="46.19676" lon="6.16368">
        <ele>414.2</ele>
        <time>2020-09-13T06:34:40.120Z</time>
      </trkpt>
      <trkpt lat="46.19682" lon="6.16337">
        <ele>414.2</ele>
        <time>2020-09-13T06:34:44.212Z</time>
      </trkpt>
      <trkpt lat="46.1969" lon="6.16305">
        <ele>414.9</ele>
        <time>2020-09-13T06:34:50.026Z</time>
      </trkpt>
      <trkpt lat="46.19698" lon="6.1628">
        <ele>415.1</ele>
        <time>2020-09-13T06:34:53.757Z</time>
      </trkpt>
      <trkpt lat="46.19706" lon="6.16257">
        <ele>415.3</ele>
        <time>2020-09-13T06:34:57.406Z</time>
      </trkpt>
      <trkpt lat="46.19719" lon="6.16221">
        <ele>415.8</ele>
        <time>2020-09-13T06:35:03.468Z</time>
      </trkpt>
      <trkpt lat="46.19729" lon="6.1619">
        <ele>415.4</ele>
        <time>2020-09-13T06:35:06.607Z</time>
      </trkpt>
      <trkpt lat="46.19753" lon="6.16121">
        <ele>412.7</ele>
        <time>2020-09-13T06:35:11.580Z</time>
      </trkpt>
      <trkpt lat="46.1977" lon="6.16072">
        <ele>411.9</ele>
        <time>2020-09-13T06:35:16.244Z</time>
      </trkpt>
      <trkpt lat="46.19775" lon="6.16056">
        <ele>411.6</ele>
        <time>2020-09-13T06:35:17.713Z</time>
      </trkpt>
      <trkpt lat="46.19779" lon="6.16047">
        <ele>411.5</ele>
        <time>2020-09-13T06:35:18.742Z</time>
      </trkpt>
      <trkpt lat="46.19781" lon="6.16036">
        <ele>411.5</ele>
        <time>2020-09-13T06:35:20.128Z</time>
      </trkpt>
      <trkpt lat="46.19784" lon="6.16027">
        <ele>411.4</ele>
        <time>2020-09-13T06:35:21.023Z</time>
      </trkpt>
      <trkpt lat="46.19792" lon="6.16002">
        <ele>411.1</ele>
        <time>2020-09-13T06:35:23.627Z</time>
      </trkpt>
      <trkpt lat="46.19798" lon="6.15984">
        <ele>411.3</ele>
        <time>2020-09-13T06:35:26.475Z</time>
      </trkpt>
      <trkpt lat="46.19807" lon="6.15954">
        <ele>411.4</ele>
        <time>2020-09-13T06:35:30.740Z</time>
      </trkpt>
      <trkpt lat="46.19823" lon="6.15895">
        <ele>411.9</ele>
        <time>2020-09-13T06:35:39.521Z</time>
      </trkpt>
      <trkpt lat="46.1984" lon="6.1582">
        <ele>410.4</ele>
        <time>2020-09-13T06:35:45.851Z</time>
      </trkpt>
      <trkpt lat="46.19845" lon="6.15787">
        <ele>409.2</ele>
        <time>2020-09-13T06:35:48.094Z</time>
      </trkpt>
      <trkpt lat="46.19848" lon="6.15764">
        <ele>409.5</ele>
        <time>2020-09-13T06:35:51.606Z</time>
      </trkpt>
      <trkpt lat="46.19856" lon="6.15726">
        <ele>408</ele>
        <time>2020-09-13T06:35:54.038Z</time>
      </trkpt>
      <trkpt lat="46.19868" lon="6.15675">
        <ele>407.3</ele>
        <time>2020-09-13T06:35:58.861Z</time>
      </trkpt>
      <trkpt lat="46.1987" lon="6.15665">
        <ele>405.6</ele>
        <time>2020-09-13T06:35:59.499Z</time>
      </trkpt>
      <trkpt lat="46.1987" lon="6.15655">
        <ele>405.4</ele>
        <time>2020-09-13T06:36:00.251Z</time>
      </trkpt>
      <trkpt lat="46.19869" lon="6.15647">
        <ele>405.3</ele>
        <time>2020-09-13T06:36:01.015Z</time>
      </trkpt>
      <trkpt lat="46.19868" lon="6.15638">
        <ele>405.1</ele>
        <time>2020-09-13T06:36:01.692Z</time>
      </trkpt>
      <trkpt lat="46.19866" lon="6.1563">
        <ele>405</ele>
        <time>2020-09-13T06:36:02.454Z</time>
      </trkpt>
      <trkpt lat="46.19862" lon="6.15622">
        <ele>404.9</ele>
        <time>2020-09-13T06:36:03.412Z</time>
      </trkpt>
      <trkpt lat="46.19839" lon="6.15566">
        <ele>403.5</ele>
        <time>2020-09-13T06:36:08.422Z</time>
      </trkpt>
      <trkpt lat="46.1983" lon="6.15544">
        <ele>406.7</ele>
        <time>2020-09-13T06:36:20.707Z</time>
      </trkpt>
      <trkpt lat="46.19823" lon="6.15531">
        <ele>406.7</ele>
        <time>2020-09-13T06:36:22.739Z</time>
      </trkpt>
      <trkpt lat="46.19813" lon="6.15514">
        <ele>406.6</ele>
        <time>2020-09-13T06:36:25.240Z</time>
      </trkpt>
      <trkpt lat="46.19781" lon="6.15469">
        <ele>408.3</ele>
        <time>2020-09-13T06:36:37.689Z</time>
      </trkpt>
      <trkpt lat="46.19719" lon="6.15381">
        <ele>410.1</ele>
        <time>2020-09-13T06:36:56.999Z</time>
      </trkpt>
      <trkpt lat="46.19705" lon="6.15365">
        <ele>410.3</ele>
        <time>2020-09-13T06:37:00.540Z</time>
      </trkpt>
      <trkpt lat="46.19695" lon="6.15352">
        <ele>410.4</ele>
        <time>2020-09-13T06:37:03.085Z</time>
      </trkpt>
      <trkpt lat="46.1969" lon="6.15344">
        <ele>410.5</ele>
        <time>2020-09-13T06:37:04.693Z</time>
      </trkpt>
      <trkpt lat="46.19685" lon="6.15329">
        <ele>410.1</ele>
        <time>2020-09-13T06:37:05.972Z</time>
      </trkpt>
      <trkpt lat="46.1966" lon="6.15267">
        <ele>409</ele>
        <time>2020-09-13T06:37:12.061Z</time>
      </trkpt>
      <trkpt lat="46.19627" lon="6.15186">
        <ele>407.1</ele>
        <time>2020-09-13T06:37:19.522Z</time>
      </trkpt>
      <trkpt lat="46.19613" lon="6.15151">
        <ele>405.7</ele>
        <time>2020-09-13T06:37:22.107Z</time>
      </trkpt>
      <trkpt lat="46.19595" lon="6.15106">
        <ele>405.5</ele>
        <time>2020-09-13T06:37:28.093Z</time>
      </trkpt>
      <trkpt lat="46.19593" lon="6.15098">
        <ele>405.5</ele>
        <time>2020-09-13T06:37:29.113Z</time>
      </trkpt>
      <trkpt lat="46.19591" lon="6.1509">
        <ele>405.7</ele>
        <time>2020-09-13T06:37:30.614Z</time>
      </trkpt>
      <trkpt lat="46.1959" lon="6.15075">
        <ele>406.2</ele>
        <time>2020-09-13T06:37:33.961Z</time>
      </trkpt>
      <trkpt lat="46.19589" lon="6.1507">
        <ele>406.3</ele>
        <time>2020-09-13T06:37:34.805Z</time>
      </trkpt>
      <trkpt lat="46.19586" lon="6.15065">
        <ele>406.5</ele>
        <time>2020-09-13T06:37:36.173Z</time>
      </trkpt>
      <trkpt lat="46.19583" lon="6.15061">
        <ele>406.3</ele>
        <time>2020-09-13T06:37:36.501Z</time>
      </trkpt>
      <trkpt lat="46.1958" lon="6.1506">
        <ele>406.3</ele>
        <time>2020-09-13T06:37:37.194Z</time>
      </trkpt>
      <trkpt lat="46.19576" lon="6.1506">
        <ele>406.3</ele>
        <time>2020-09-13T06:37:37.861Z</time>
      </trkpt>
      <trkpt lat="46.19572" lon="6.15062">
        <ele>406.2</ele>
        <time>2020-09-13T06:37:38.306Z</time>
      </trkpt>
      <trkpt lat="46.19552" lon="6.15081">
        <ele>405.8</ele>
        <time>2020-09-13T06:37:41.516Z</time>
      </trkpt>
      <trkpt lat="46.19548" lon="6.15083">
        <ele>405.8</ele>
        <time>2020-09-13T06:37:42.261Z</time>
      </trkpt>
      <trkpt lat="46.19545" lon="6.15082">
        <ele>405.7</ele>
        <time>2020-09-13T06:37:42.592Z</time>
      </trkpt>
      <trkpt lat="46.19542" lon="6.15081">
        <ele>405.7</ele>
        <time>2020-09-13T06:37:43.194Z</time>
      </trkpt>
      <trkpt lat="46.19539" lon="6.15077">
        <ele>405.6</ele>
        <time>2020-09-13T06:37:43.664Z</time>
      </trkpt>
      <trkpt lat="46.19535" lon="6.1507">
        <ele>405.5</ele>
        <time>2020-09-13T06:37:44.487Z</time>
      </trkpt>
      <trkpt lat="46.19487" lon="6.14977">
        <ele>396.8</ele>
        <time>2020-09-13T06:37:51.648Z</time>
      </trkpt>
      <trkpt lat="46.19472" lon="6.14947">
        <ele>395.2</ele>
        <time>2020-09-13T06:37:53.818Z</time>
      </trkpt>
      <trkpt lat="46.19469" lon="6.14939">
        <ele>395</ele>
        <time>2020-09-13T06:37:54.555Z</time>
      </trkpt>
      <trkpt lat="46.19468" lon="6.14935">
        <ele>394.9</ele>
        <time>2020-09-13T06:37:54.824Z</time>
      </trkpt>
      <trkpt lat="46.19469" lon="6.1493">
        <ele>394.9</ele>
        <time>2020-09-13T06:37:55.516Z</time>
      </trkpt>
      <trkpt lat="46.1947" lon="6.14924">
        <ele>394.9</ele>
        <time>2020-09-13T06:37:56.253Z</time>
      </trkpt>
      <trkpt lat="46.19472" lon="6.14919">
        <ele>394.9</ele>
        <time>2020-09-13T06:37:56.954Z</time>
      </trkpt>
      <trkpt lat="46.19475" lon="6.14913">
        <ele>393.6</ele>
        <time>2020-09-13T06:37:57.433Z</time>
      </trkpt>
      <trkpt lat="46.19498" lon="6.1488">
        <ele>393.2</ele>
        <time>2020-09-13T06:38:01.887Z</time>
      </trkpt>
      <trkpt lat="46.19507" lon="6.14868">
        <ele>396.3</ele>
        <time>2020-09-13T06:38:10.120Z</time>
      </trkpt>
      <trkpt lat="46.19512" lon="6.14862">
        <ele>396.1</ele>
        <time>2020-09-13T06:38:10.958Z</time>
      </trkpt>
      <trkpt lat="46.19518" lon="6.14857">
        <ele>396.1</ele>
        <time>2020-09-13T06:38:12.142Z</time>
      </trkpt>
      <trkpt lat="46.19522" lon="6.14855">
        <ele>396.2</ele>
        <time>2020-09-13T06:38:13.131Z</time>
      </trkpt>
      <trkpt lat="46.19527" lon="6.14854">
        <ele>396.4</ele>
        <time>2020-09-13T06:38:14.511Z</time>
      </trkpt>
      <trkpt lat="46.19532" lon="6.14853">
        <ele>396.7</ele>
        <time>2020-09-13T06:38:16.368Z</time>
      </trkpt>
      <trkpt lat="46.19537" lon="6.14854">
        <ele>397</ele>
        <time>2020-09-13T06:38:18.059Z</time>
      </trkpt>
      <trkpt lat="46.19629" lon="6.1491">
        <ele>400.8</ele>
        <time>2020-09-13T06:38:45.703Z</time>
      </trkpt>
      <trkpt lat="46.19634" lon="6.14911">
        <ele>400.6</ele>
        <time>2020-09-13T06:38:46.169Z</time>
      </trkpt>
      <trkpt lat="46.19638" lon="6.14912">
        <ele>400.5</ele>
        <time>2020-09-13T06:38:46.636Z</time>
      </trkpt>
      <trkpt lat="46.19647" lon="6.14912">
        <ele>400.2</ele>
        <time>2020-09-13T06:38:47.562Z</time>
      </trkpt>
      <trkpt lat="46.19673" lon="6.14909">
        <ele>398.6</ele>
        <time>2020-09-13T06:38:49.796Z</time>
      </trkpt>
      <trkpt lat="46.1968" lon="6.14908">
        <ele>398</ele>
        <time>2020-09-13T06:38:50.485Z</time>
      </trkpt>
      <trkpt lat="46.19684" lon="6.1491">
        <ele>397.8</ele>
        <time>2020-09-13T06:38:50.862Z</time>
      </trkpt>
      <trkpt lat="46.19693" lon="6.14921">
        <ele>399.8</ele>
        <time>2020-09-13T06:38:58.811Z</time>
      </trkpt>
      <trkpt lat="46.19702" lon="6.14934">
        <ele>399.7</ele>
        <time>2020-09-13T06:39:00.754Z</time>
      </trkpt>
      <trkpt lat="46.19705" lon="6.14936">
        <ele>399.7</ele>
        <time>2020-09-13T06:39:01.328Z</time>
      </trkpt>
      <trkpt lat="46.19709" lon="6.14935">
        <ele>399.5</ele>
        <time>2020-09-13T06:39:01.638Z</time>
      </trkpt>
      <trkpt lat="46.19712" lon="6.14933">
        <ele>399.4</ele>
        <time>2020-09-13T06:39:02.007Z</time>
      </trkpt>
      <trkpt lat="46.19715" lon="6.14929">
        <ele>399.1</ele>
        <time>2020-09-13T06:39:02.390Z</time>
      </trkpt>
      <trkpt lat="46.19741" lon="6.14891">
        <ele>395.6</ele>
        <time>2020-09-13T06:39:05.687Z</time>
      </trkpt>
      <trkpt lat="46.19764" lon="6.14858">
        <ele>395.5</ele>
        <time>2020-09-13T06:39:11.243Z</time>
      </trkpt>
      <trkpt lat="46.19766" lon="6.14855">
        <ele>395.5</ele>
        <time>2020-09-13T06:39:11.799Z</time>
      </trkpt>
      <trkpt lat="46.19768" lon="6.14854">
        <ele>395.5</ele>
        <time>2020-09-13T06:39:12.267Z</time>
      </trkpt>
      <trkpt lat="46.19771" lon="6.14855">
        <ele>395.6</ele>
        <time>2020-09-13T06:39:13.048Z</time>
      </trkpt>
      <trkpt lat="46.19774" lon="6.14857">
        <ele>395.7</ele>
        <time>2020-09-13T06:39:13.914Z</time>
      </trkpt>
      <trkpt lat="46.19795" lon="6.14887">
        <ele>396.4</ele>
        <time>2020-09-13T06:39:20.536Z</time>
      </trkpt>
      <trkpt lat="46.19798" lon="6.14892">
        <ele>396.6</ele>
        <time>2020-09-13T06:39:21.988Z</time>
      </trkpt>
      <trkpt lat="46.19801" lon="6.14894">
        <ele>396.7</ele>
        <time>2020-09-13T06:39:22.790Z</time>
      </trkpt>
      <trkpt lat="46.19804" lon="6.14894">
        <ele>396.8</ele>
        <time>2020-09-13T06:39:23.569Z</time>
      </trkpt>
      <trkpt lat="46.19808" lon="6.14893">
        <ele>396.9</ele>
        <time>2020-09-13T06:39:24.496Z</time>
      </trkpt>
      <trkpt lat="46.19811" lon="6.14891">
        <ele>396.9</ele>
        <time>2020-09-13T06:39:25.110Z</time>
      </trkpt>
      <trkpt lat="46.19817" lon="6.14887">
        <ele>396.9</ele>
        <time>2020-09-13T06:39:26.291Z</time>
      </trkpt>
      <trkpt lat="46.19836" lon="6.14859">
        <ele>399.5</ele>
        <time>2020-09-13T06:39:38.495Z</time>
      </trkpt>
      <trkpt lat="46.19853" lon="6.14834">
        <ele>399.2</ele>
        <time>2020-09-13T06:39:41.910Z</time>
      </trkpt>
      <trkpt lat="46.19857" lon="6.14826">
        <ele>396.6</ele>
        <time>2020-09-13T06:39:42.529Z</time>
      </trkpt>
      <trkpt lat="46.19862" lon="6.14817">
        <ele>396.4</ele>
        <time>2020-09-13T06:39:43.523Z</time>
      </trkpt>
      <trkpt lat="46.19867" lon="6.14808">
        <ele>396.2</ele>
        <time>2020-09-13T06:39:44.370Z</time>
      </trkpt>
      <trkpt lat="46.19871" lon="6.14801">
        <ele>396.1</ele>
        <time>2020-09-13T06:39:45.249Z</time>
      </trkpt>
      <trkpt lat="46.19875" lon="6.14794">
        <ele>395.9</ele>
        <time>2020-09-13T06:39:45.900Z</time>
      </trkpt>
      <trkpt lat="46.19879" lon="6.14789">
        <ele>395.7</ele>
        <time>2020-09-13T06:39:46.460Z</time>
      </trkpt>
      <trkpt lat="46.19884" lon="6.14784">
        <ele>395.6</ele>
        <time>2020-09-13T06:39:47.256Z</time>
      </trkpt>
      <trkpt lat="46.1989" lon="6.14779">
        <ele>395.4</ele>
        <time>2020-09-13T06:39:48.138Z</time>
      </trkpt>
      <trkpt lat="46.19916" lon="6.14761">
        <ele>394.1</ele>
        <time>2020-09-13T06:39:50.955Z</time>
      </trkpt>
      <trkpt lat="46.19946" lon="6.14742">
        <ele>397.6</ele>
        <time>2020-09-13T06:40:07.401Z</time>
      </trkpt>
      <trkpt lat="46.19953" lon="6.14738">
        <ele>398.5</ele>
        <time>2020-09-13T06:40:11.755Z</time>
      </trkpt>
      <trkpt lat="46.19961" lon="6.14735">
        <ele>399.4</ele>
        <time>2020-09-13T06:40:16.017Z</time>
      </trkpt>
      <trkpt lat="46.19968" lon="6.14732">
        <ele>400.2</ele>
        <time>2020-09-13T06:40:19.811Z</time>
      </trkpt>
      <trkpt lat="46.19974" lon="6.14729">
        <ele>400.7</ele>
        <time>2020-09-13T06:40:22.272Z</time>
      </trkpt>
      <trkpt lat="46.1998" lon="6.14723">
        <ele>401</ele>
        <time>2020-09-13T06:40:24.380Z</time>
      </trkpt>
      <trkpt lat="46.19987" lon="6.14716">
        <ele>401</ele>
        <time>2020-09-13T06:40:25.827Z</time>
      </trkpt>
      <trkpt lat="46.19992" lon="6.14708">
        <ele>400.7</ele>
        <time>2020-09-13T06:40:26.660Z</time>
      </trkpt>
      <trkpt lat="46.20005" lon="6.14679">
        <ele>404.8</ele>
        <time>2020-09-13T06:40:43.250Z</time>
      </trkpt>
      <trkpt lat="46.2005" lon="6.14581">
        <ele>395.1</ele>
        <time>2020-09-13T06:40:50.504Z</time>
      </trkpt>
      <trkpt lat="46.20098" lon="6.14483">
        <ele>392</ele>
        <time>2020-09-13T06:40:59.270Z</time>
      </trkpt>
      <trkpt lat="46.20129" lon="6.14417">
        <ele>390.5</ele>
        <time>2020-09-13T06:41:05.639Z</time>
      </trkpt>
      <trkpt lat="46.20138" lon="6.14403">
        <ele>385.7</ele>
        <time>2020-09-13T06:41:06.837Z</time>
      </trkpt>
      <trkpt lat="46.20142" lon="6.14398">
        <ele>385.8</ele>
        <time>2020-09-13T06:41:08.030Z</time>
      </trkpt>
      <trkpt lat="46.20146" lon="6.14393">
        <ele>385.8</ele>
        <time>2020-09-13T06:41:08.996Z</time>
      </trkpt>
      <trkpt lat="46.20151" lon="6.14389">
        <ele>385.8</ele>
        <time>2020-09-13T06:41:10.065Z</time>
      </trkpt>
      <trkpt lat="46.20164" lon="6.14383">
        <ele>385.7</ele>
        <time>2020-09-13T06:41:11.993Z</time>
      </trkpt>
      <trkpt lat="46.2022" lon="6.1436">
        <ele>389.5</ele>
        <time>2020-09-13T06:41:32.444Z</time>
      </trkpt>
      <trkpt lat="46.20283" lon="6.14333">
        <ele>389.2</ele>
        <time>2020-09-13T06:41:43.514Z</time>
      </trkpt>
      <trkpt lat="46.20363" lon="6.14299">
        <ele>385.5</ele>
        <time>2020-09-13T06:41:51.737Z</time>
      </trkpt>
      <trkpt lat="46.20373" lon="6.14297">
        <ele>384.8</ele>
        <time>2020-09-13T06:41:52.644Z</time>
      </trkpt>
      <trkpt lat="46.20381" lon="6.14296">
        <ele>384.3</ele>
        <time>2020-09-13T06:41:53.284Z</time>
      </trkpt>
      <trkpt lat="46.20388" lon="6.14297">
        <ele>383.9</ele>
        <time>2020-09-13T06:41:53.865Z</time>
      </trkpt>
      <trkpt lat="46.20395" lon="6.14295">
        <ele>383.4</ele>
        <time>2020-09-13T06:41:54.509Z</time>
      </trkpt>
      <trkpt lat="46.20404" lon="6.14292">
        <ele>383</ele>
        <time>2020-09-13T06:41:55.404Z</time>
      </trkpt>
      <trkpt lat="46.20409" lon="6.14293">
        <ele>382.8</ele>
        <time>2020-09-13T06:41:55.821Z</time>
      </trkpt>
      <trkpt lat="46.20412" lon="6.14294">
        <ele>382.8</ele>
        <time>2020-09-13T06:41:56.458Z</time>
      </trkpt>
      <trkpt lat="46.20415" lon="6.14298">
        <ele>382.8</ele>
        <time>2020-09-13T06:41:57.190Z</time>
      </trkpt>
      <trkpt lat="46.20418" lon="6.14302">
        <ele>378.7</ele>
        <time>2020-09-13T06:41:57.538Z</time>
      </trkpt>
      <trkpt lat="46.2042" lon="6.14307">
        <ele>378.9</ele>
        <time>2020-09-13T06:41:58.858Z</time>
      </trkpt>
      <trkpt lat="46.20423" lon="6.14316">
        <ele>379.3</ele>
        <time>2020-09-13T06:42:01.079Z</time>
      </trkpt>
      <trkpt lat="46.20424" lon="6.14322">
        <ele>379.7</ele>
        <time>2020-09-13T06:42:03.032Z</time>
      </trkpt>
      <trkpt lat="46.20426" lon="6.14326">
        <ele>379.8</ele>
        <time>2020-09-13T06:42:03.856Z</time>
      </trkpt>
      <trkpt lat="46.20429" lon="6.14328">
        <ele>379.7</ele>
        <time>2020-09-13T06:42:04.186Z</time>
      </trkpt>
      <trkpt lat="46.20432" lon="6.14328">
        <ele>379.4</ele>
        <time>2020-09-13T06:42:04.490Z</time>
      </trkpt>
      <trkpt lat="46.20445" lon="6.14325">
        <ele>378.8</ele>
        <time>2020-09-13T06:42:05.712Z</time>
      </trkpt>
      <trkpt lat="46.20453" lon="6.14322">
        <ele>378.5</ele>
        <time>2020-09-13T06:42:06.506Z</time>
      </trkpt>
      <trkpt lat="46.20524" lon="6.14288">
        <ele>378.9</ele>
        <time>2020-09-13T06:42:20.761Z</time>
      </trkpt>
      <trkpt lat="46.20528" lon="6.14286">
        <ele>379</ele>
        <time>2020-09-13T06:42:21.824Z</time>
      </trkpt>
      <trkpt lat="46.20532" lon="6.14286">
        <ele>379.2</ele>
        <time>2020-09-13T06:42:22.905Z</time>
      </trkpt>
      <trkpt lat="46.20535" lon="6.14288">
        <ele>379.4</ele>
        <time>2020-09-13T06:42:24.097Z</time>
      </trkpt>
      <trkpt lat="46.20549" lon="6.14301">
        <ele>380.2</ele>
        <time>2020-09-13T06:42:29.200Z</time>
      </trkpt>
      <trkpt lat="46.20553" lon="6.14304">
        <ele>380.4</ele>
        <time>2020-09-13T06:42:30.581Z</time>
      </trkpt>
      <trkpt lat="46.20556" lon="6.14306">
        <ele>380.6</ele>
        <time>2020-09-13T06:42:31.700Z</time>
      </trkpt>
      <trkpt lat="46.20559" lon="6.14306">
        <ele>380.8</ele>
        <time>2020-09-13T06:42:32.878Z</time>
      </trkpt>
      <trkpt lat="46.20563" lon="6.14306">
        <ele>380.9</ele>
        <time>2020-09-13T06:42:33.783Z</time>
      </trkpt>
      <trkpt lat="46.20567" lon="6.14304">
        <ele>381</ele>
        <time>2020-09-13T06:42:34.759Z</time>
      </trkpt>
      <trkpt lat="46.20686" lon="6.14223">
        <ele>391.2</ele>
        <time>2020-09-13T06:43:25.412Z</time>
      </trkpt>
      <trkpt lat="46.20706" lon="6.14211">
        <ele>391</ele>
        <time>2020-09-13T06:43:28.444Z</time>
      </trkpt>
      <trkpt lat="46.20709" lon="6.1421">
        <ele>391</ele>
        <time>2020-09-13T06:43:29.034Z</time>
      </trkpt>
      <trkpt lat="46.20713" lon="6.1421">
        <ele>391.1</ele>
        <time>2020-09-13T06:43:29.954Z</time>
      </trkpt>
      <trkpt lat="46.20717" lon="6.14212">
        <ele>391.1</ele>
        <time>2020-09-13T06:43:30.668Z</time>
      </trkpt>
      <trkpt lat="46.20751" lon="6.1423">
        <ele>391.6</ele>
        <time>2020-09-13T06:43:38.158Z</time>
      </trkpt>
      <trkpt lat="46.20789" lon="6.14249">
        <ele>390.8</ele>
        <time>2020-09-13T06:43:43.369Z</time>
      </trkpt>
      <trkpt lat="46.20797" lon="6.14253">
        <ele>390.7</ele>
        <time>2020-09-13T06:43:44.422Z</time>
      </trkpt>
      <trkpt lat="46.20804" lon="6.14255">
        <ele>390.5</ele>
        <time>2020-09-13T06:43:45.322Z</time>
      </trkpt>
      <trkpt lat="46.20812" lon="6.14257">
        <ele>390.2</ele>
        <time>2020-09-13T06:43:46.147Z</time>
      </trkpt>
      <trkpt lat="46.20821" lon="6.14259">
        <ele>389.9</ele>
        <time>2020-09-13T06:43:47.163Z</time>
      </trkpt>
      <trkpt lat="46.20828" lon="6.14258">
        <ele>389.7</ele>
        <time>2020-09-13T06:43:47.998Z</time>
      </trkpt>
      <trkpt lat="46.20836" lon="6.14258">
        <ele>389.2</ele>
        <time>2020-09-13T06:43:48.625Z</time>
      </trkpt>
      <trkpt lat="46.20842" lon="6.14257">
        <ele>389.3</ele>
        <time>2020-09-13T06:43:49.957Z</time>
      </trkpt>
      <trkpt lat="46.20849" lon="6.14177">
        <ele>390.3</ele>
        <time>2020-09-13T06:44:02.023Z</time>
      </trkpt>
      <trkpt lat="46.20857" lon="6.14094">
        <ele>390.5</ele>
        <time>2020-09-13T06:44:12.815Z</time>
      </trkpt>
      <trkpt lat="46.20867" lon="6.14047">
        <ele>390.4</ele>
        <time>2020-09-13T06:44:18.683Z</time>
      </trkpt>
      <trkpt lat="46.20892" lon="6.14006">
        <ele>391</ele>
        <time>2020-09-13T06:44:26.560Z</time>
      </trkpt>
      <trkpt lat="46.21009" lon="6.14109">
        <ele>392.8</ele>
        <time>2020-09-13T06:44:54.724Z</time>
      </trkpt>
      <trkpt lat="46.21014" lon="6.14113">
        <ele>392.8</ele>
        <time>2020-09-13T06:44:55.681Z</time>
      </trkpt>
      <trkpt lat="46.21017" lon="6.14115">
        <ele>392.7</ele>
        <time>2020-09-13T06:44:56.077Z</time>
      </trkpt>
      <trkpt lat="46.21023" lon="6.14122">
        <ele>392.7</ele>
        <time>2020-09-13T06:44:57.475Z</time>
      </trkpt>
      <trkpt lat="46.21028" lon="6.14127">
        <ele>392.7</ele>
        <time>2020-09-13T06:44:58.565Z</time>
      </trkpt>
      <trkpt lat="46.21067" lon="6.14168">
        <ele>392.5</ele>
        <time>2020-09-13T06:45:06.690Z</time>
      </trkpt>
      <trkpt lat="46.21072" lon="6.14173">
        <ele>392.6</ele>
        <time>2020-09-13T06:45:07.927Z</time>
      </trkpt>
      <trkpt lat="46.21076" lon="6.14175">
        <ele>392.7</ele>
        <time>2020-09-13T06:45:08.936Z</time>
      </trkpt>
      <trkpt lat="46.2108" lon="6.14175">
        <ele>392.7</ele>
        <time>2020-09-13T06:45:09.641Z</time>
      </trkpt>
      <trkpt lat="46.21086" lon="6.14174">
        <ele>393.6</ele>
        <time>2020-09-13T06:45:13.689Z</time>
      </trkpt>
      <trkpt lat="46.2112" lon="6.14163">
        <ele>395</ele>
        <time>2020-09-13T06:45:23.658Z</time>
      </trkpt>
      <trkpt lat="46.21169" lon="6.14149">
        <ele>397.2</ele>
        <time>2020-09-13T06:45:38.756Z</time>
      </trkpt>
      <trkpt lat="46.21188" lon="6.14142">
        <ele>396.8</ele>
        <time>2020-09-13T06:45:41.325Z</time>
      </trkpt>
      <trkpt lat="46.21202" lon="6.14137">
        <ele>396.6</ele>
        <time>2020-09-13T06:45:43.256Z</time>
      </trkpt>
      <trkpt lat="46.21233" lon="6.14127">
        <ele>396.4</ele>
        <time>2020-09-13T06:45:48.378Z</time>
      </trkpt>
      <trkpt lat="46.21239" lon="6.14125">
        <ele>396.3</ele>
        <time>2020-09-13T06:45:49.246Z</time>
      </trkpt>
      <trkpt lat="46.21244" lon="6.14123">
        <ele>396.3</ele>
        <time>2020-09-13T06:45:50.235Z</time>
      </trkpt>
      <trkpt lat="46.2125" lon="6.14123">
        <ele>396.3</ele>
        <time>2020-09-13T06:45:51.211Z</time>
      </trkpt>
      <trkpt lat="46.21255" lon="6.14123">
        <ele>396.2</ele>
        <time>2020-09-13T06:45:51.923Z</time>
      </trkpt>
      <trkpt lat="46.21274" lon="6.14124">
        <ele>396.2</ele>
        <time>2020-09-13T06:45:55.260Z</time>
      </trkpt>
      <trkpt lat="46.21287" lon="6.14128">
        <ele>396.2</ele>
        <time>2020-09-13T06:45:57.731Z</time>
      </trkpt>
      <trkpt lat="46.21311" lon="6.14132">
        <ele>396.3</ele>
        <time>2020-09-13T06:46:02.221Z</time>
      </trkpt>
      <trkpt lat="46.21343" lon="6.14133">
        <ele>396.6</ele>
        <time>2020-09-13T06:46:08.587Z</time>
      </trkpt>
      <trkpt lat="46.2141" lon="6.1414">
        <ele>397.1</ele>
        <time>2020-09-13T06:46:21.499Z</time>
      </trkpt>
      <trkpt lat="46.21435" lon="6.14142">
        <ele>397.1</ele>
        <time>2020-09-13T06:46:25.961Z</time>
      </trkpt>
      <trkpt lat="46.21453" lon="6.14142">
        <ele>397</ele>
        <time>2020-09-13T06:46:29.024Z</time>
      </trkpt>
      <trkpt lat="46.21479" lon="6.14144">
        <ele>396.6</ele>
        <time>2020-09-13T06:46:32.565Z</time>
      </trkpt>
      <trkpt lat="46.21517" lon="6.14147">
        <ele>395.8</ele>
        <time>2020-09-13T06:46:37.226Z</time>
      </trkpt>
      <trkpt lat="46.21534" lon="6.14147">
        <ele>395.7</ele>
        <time>2020-09-13T06:46:40.163Z</time>
      </trkpt>
      <trkpt lat="46.21551" lon="6.14146">
        <ele>395.4</ele>
        <time>2020-09-13T06:46:42.375Z</time>
      </trkpt>
      <trkpt lat="46.21569" lon="6.14143">
        <ele>395</ele>
        <time>2020-09-13T06:46:44.538Z</time>
      </trkpt>
      <trkpt lat="46.21604" lon="6.14135">
        <ele>396.3</ele>
        <time>2020-09-13T06:46:54.139Z</time>
      </trkpt>
      <trkpt lat="46.21619" lon="6.14132">
        <ele>396.9</ele>
        <time>2020-09-13T06:46:58.462Z</time>
      </trkpt>
      <trkpt lat="46.21629" lon="6.14131">
        <ele>397.1</ele>
        <time>2020-09-13T06:47:00.692Z</time>
      </trkpt>
      <trkpt lat="46.21639" lon="6.14129">
        <ele>397.4</ele>
        <time>2020-09-13T06:47:03.175Z</time>
      </trkpt>
      <trkpt lat="46.21642" lon="6.14129">
        <ele>397.5</ele>
        <time>2020-09-13T06:47:03.889Z</time>
      </trkpt>
      <trkpt lat="46.21644" lon="6.14127">
        <ele>397.6</ele>
        <time>2020-09-13T06:47:04.622Z</time>
      </trkpt>
      <trkpt lat="46.21645" lon="6.14123">
        <ele>397.7</ele>
        <time>2020-09-13T06:47:05.336Z</time>
      </trkpt>
      <trkpt lat="46.21645" lon="6.14119">
        <ele>397.8</ele>
        <time>2020-09-13T06:47:06.086Z</time>
      </trkpt>
      <trkpt lat="46.21645" lon="6.14115">
        <ele>398</ele>
        <time>2020-09-13T06:47:07.195Z</time>
      </trkpt>
      <trkpt lat="46.21645" lon="6.14083">
        <ele>400.6</ele>
        <time>2020-09-13T06:47:19.744Z</time>
      </trkpt>
      <trkpt lat="46.21644" lon="6.14021">
        <ele>400.9</ele>
        <time>2020-09-13T06:47:27.997Z</time>
      </trkpt>
      <trkpt lat="46.21645" lon="6.14004">
        <ele>401.1</ele>
        <time>2020-09-13T06:47:30.527Z</time>
      </trkpt>
      <trkpt lat="46.21646" lon="6.13985">
        <ele>403.6</ele>
        <time>2020-09-13T06:47:39.634Z</time>
      </trkpt>
      <trkpt lat="46.2165" lon="6.13928">
        <ele>406.9</ele>
        <time>2020-09-13T06:47:55.598Z</time>
      </trkpt>
      <trkpt lat="46.21654" lon="6.13895">
        <ele>409.9</ele>
        <time>2020-09-13T06:48:10.632Z</time>
      </trkpt>
      <trkpt lat="46.21656" lon="6.13875">
        <ele>410.2</ele>
        <time>2020-09-13T06:48:13.734Z</time>
      </trkpt>
      <trkpt lat="46.21661" lon="6.13849">
        <ele>410.6</ele>
        <time>2020-09-13T06:48:17.890Z</time>
      </trkpt>
      <trkpt lat="46.21665" lon="6.1383">
        <ele>411.4</ele>
        <time>2020-09-13T06:48:22.514Z</time>
      </trkpt>
      <trkpt lat="46.21683" lon="6.13752">
        <ele>413</ele>
        <time>2020-09-13T06:48:36.397Z</time>
      </trkpt>
      <trkpt lat="46.21716" lon="6.13659">
        <ele>414.4</ele>
        <time>2020-09-13T06:48:52.204Z</time>
      </trkpt>
      <trkpt lat="46.21732" lon="6.13625">
        <ele>414</ele>
        <time>2020-09-13T06:48:56.089Z</time>
      </trkpt>
      <trkpt lat="46.21734" lon="6.13622">
        <ele>413.9</ele>
        <time>2020-09-13T06:48:56.315Z</time>
      </trkpt>
      <trkpt lat="46.21737" lon="6.13621">
        <ele>413.8</ele>
        <time>2020-09-13T06:48:56.652Z</time>
      </trkpt>
      <trkpt lat="46.2174" lon="6.13621">
        <ele>413.8</ele>
        <time>2020-09-13T06:48:57.211Z</time>
      </trkpt>
      <trkpt lat="46.21743" lon="6.13622">
        <ele>413.7</ele>
        <time>2020-09-13T06:48:57.565Z</time>
      </trkpt>
      <trkpt lat="46.21747" lon="6.13624">
        <ele>413.7</ele>
        <time>2020-09-13T06:48:58.362Z</time>
      </trkpt>
      <trkpt lat="46.21752" lon="6.13628">
        <ele>411.6</ele>
        <time>2020-09-13T06:48:58.858Z</time>
      </trkpt>
      <trkpt lat="46.21751" lon="6.13633">
        <ele>411.8</ele>
        <time>2020-09-13T06:49:00.023Z</time>
      </trkpt>
      <trkpt lat="46.21751" lon="6.13633">
        <ele>411.8</ele>
        <time>2020-09-13T06:49:00.088Z</time>
      </trkpt>
      <trkpt lat="46.21751" lon="6.13632">
        <ele>411.8</ele>
        <time>2020-09-13T06:49:00.138Z</time>
      </trkpt>
      <trkpt lat="46.21829" lon="6.13705">
        <ele>411.4</ele>
        <time>2020-09-13T06:49:15.939Z</time>
      </trkpt>
      <trkpt lat="46.21846" lon="6.13721">
        <ele>410.5</ele>
        <time>2020-09-13T06:49:17.848Z</time>
      </trkpt>
      <trkpt lat="46.21853" lon="6.13729">
        <ele>410.5</ele>
        <time>2020-09-13T06:49:19.411Z</time>
      </trkpt>
      <trkpt lat="46.2186" lon="6.13738">
        <ele>410.6</ele>
        <time>2020-09-13T06:49:21.270Z</time>
      </trkpt>
      <trkpt lat="46.21869" lon="6.13752">
        <ele>410.9</ele>
        <time>2020-09-13T06:49:24.301Z</time>
      </trkpt>
      <trkpt lat="46.21891" lon="6.13782">
        <ele>410.6</ele>
        <time>2020-09-13T06:49:28.739Z</time>
      </trkpt>
      <trkpt lat="46.21909" lon="6.13808">
        <ele>410</ele>
        <time>2020-09-13T06:49:31.789Z</time>
      </trkpt>
      <trkpt lat="46.21928" lon="6.13833">
        <ele>408.3</ele>
        <time>2020-09-13T06:49:33.875Z</time>
      </trkpt>
      <trkpt lat="46.21947" lon="6.13858">
        <ele>409</ele>
        <time>2020-09-13T06:49:40.014Z</time>
      </trkpt>
      <trkpt lat="46.21978" lon="6.13898">
        <ele>408.3</ele>
        <time>2020-09-13T06:49:45.561Z</time>
      </trkpt>
      <trkpt lat="46.21986" lon="6.13909">
        <ele>407.6</ele>
        <time>2020-09-13T06:49:46.502Z</time>
      </trkpt>
      <trkpt lat="46.21998" lon="6.13926">
        <ele>407.1</ele>
        <time>2020-09-13T06:49:48.323Z</time>
      </trkpt>
      <trkpt lat="46.22028" lon="6.13973">
        <ele>406.9</ele>
        <time>2020-09-13T06:49:55.799Z</time>
      </trkpt>
      <trkpt lat="46.22059" lon="6.14022">
        <ele>406</ele>
        <time>2020-09-13T06:50:01.675Z</time>
      </trkpt>
      <trkpt lat="46.22062" lon="6.14029">
        <ele>405.9</ele>
        <time>2020-09-13T06:50:02.327Z</time>
      </trkpt>
      <trkpt lat="46.22064" lon="6.14036">
        <ele>405.7</ele>
        <time>2020-09-13T06:50:02.957Z</time>
      </trkpt>
      <trkpt lat="46.22067" lon="6.14045">
        <ele>405.5</ele>
        <time>2020-09-13T06:50:03.705Z</time>
      </trkpt>
      <trkpt lat="46.22068" lon="6.14048">
        <ele>405.4</ele>
        <time>2020-09-13T06:50:03.946Z</time>
      </trkpt>
      <trkpt lat="46.22071" lon="6.1405">
        <ele>405.3</ele>
        <time>2020-09-13T06:50:04.276Z</time>
      </trkpt>
      <trkpt lat="46.22074" lon="6.14051">
        <ele>405.3</ele>
        <time>2020-09-13T06:50:04.811Z</time>
      </trkpt>
      <trkpt lat="46.22078" lon="6.1405">
        <ele>405.2</ele>
        <time>2020-09-13T06:50:05.360Z</time>
      </trkpt>
      <trkpt lat="46.22098" lon="6.14037">
        <ele>404.8</ele>
        <time>2020-09-13T06:50:08.179Z</time>
      </trkpt>
      <trkpt lat="46.2211" lon="6.1403">
        <ele>404.9</ele>
        <time>2020-09-13T06:50:10.745Z</time>
      </trkpt>
      <trkpt lat="46.22118" lon="6.14027">
        <ele>404.9</ele>
        <time>2020-09-13T06:50:12.188Z</time>
      </trkpt>
      <trkpt lat="46.22123" lon="6.14027">
        <ele>404.9</ele>
        <time>2020-09-13T06:50:13.090Z</time>
      </trkpt>
      <trkpt lat="46.22129" lon="6.14026">
        <ele>404.9</ele>
        <time>2020-09-13T06:50:14.173Z</time>
      </trkpt>
      <trkpt lat="46.22134" lon="6.14026">
        <ele>404.9</ele>
        <time>2020-09-13T06:50:15.057Z</time>
      </trkpt>
      <trkpt lat="46.22138" lon="6.14025">
        <ele>404.9</ele>
        <time>2020-09-13T06:50:15.821Z</time>
      </trkpt>
      <trkpt lat="46.22143" lon="6.14024">
        <ele>404.9</ele>
        <time>2020-09-13T06:50:16.663Z</time>
      </trkpt>
      <trkpt lat="46.22147" lon="6.14021">
        <ele>404.9</ele>
        <time>2020-09-13T06:50:17.551Z</time>
      </trkpt>
      <trkpt lat="46.22152" lon="6.14016">
        <ele>404.9</ele>
        <time>2020-09-13T06:50:18.501Z</time>
      </trkpt>
      <trkpt lat="46.22156" lon="6.1401">
        <ele>404.9</ele>
        <time>2020-09-13T06:50:19.535Z</time>
      </trkpt>
      <trkpt lat="46.22161" lon="6.14">
        <ele>405.1</ele>
        <time>2020-09-13T06:50:21.552Z</time>
      </trkpt>
      <trkpt lat="46.22181" lon="6.13957">
        <ele>406.1</ele>
        <time>2020-09-13T06:50:30.198Z</time>
      </trkpt>
      <trkpt lat="46.22201" lon="6.13915">
        <ele>406.1</ele>
        <time>2020-09-13T06:50:36.599Z</time>
      </trkpt>
      <trkpt lat="46.22206" lon="6.13904">
        <ele>406.3</ele>
        <time>2020-09-13T06:50:38.673Z</time>
      </trkpt>
      <trkpt lat="46.2221" lon="6.13892">
        <ele>406.3</ele>
        <time>2020-09-13T06:50:40.352Z</time>
      </trkpt>
      <trkpt lat="46.22214" lon="6.13881">
        <ele>406.4</ele>
        <time>2020-09-13T06:50:42.037Z</time>
      </trkpt>
      <trkpt lat="46.22218" lon="6.13861">
        <ele>406.4</ele>
        <time>2020-09-13T06:50:44.607Z</time>
      </trkpt>
      <trkpt lat="46.22226" lon="6.13833">
        <ele>407.4</ele>
        <time>2020-09-13T06:50:51.186Z</time>
      </trkpt>
      <trkpt lat="46.22232" lon="6.13817">
        <ele>407.6</ele>
        <time>2020-09-13T06:50:53.800Z</time>
      </trkpt>
      <trkpt lat="46.22244" lon="6.13786">
        <ele>407.9</ele>
        <time>2020-09-13T06:50:58.793Z</time>
      </trkpt>
      <trkpt lat="46.22269" lon="6.13731">
        <ele>410.9</ele>
        <time>2020-09-13T06:51:14.835Z</time>
      </trkpt>
      <trkpt lat="46.22305" lon="6.13655">
        <ele>414.2</ele>
        <time>2020-09-13T06:51:35.162Z</time>
      </trkpt>
      <trkpt lat="46.22329" lon="6.13605">
        <ele>415.8</ele>
        <time>2020-09-13T06:51:46.835Z</time>
      </trkpt>
      <trkpt lat="46.22357" lon="6.13549">
        <ele>419.5</ele>
        <time>2020-09-13T06:52:05.112Z</time>
      </trkpt>
      <trkpt lat="46.22361" lon="6.1354">
        <ele>419.7</ele>
        <time>2020-09-13T06:52:06.923Z</time>
      </trkpt>
      <trkpt lat="46.22364" lon="6.1353">
        <ele>419.9</ele>
        <time>2020-09-13T06:52:08.761Z</time>
      </trkpt>
      <trkpt lat="46.22369" lon="6.13519">
        <ele>420.1</ele>
        <time>2020-09-13T06:52:10.775Z</time>
      </trkpt>
      <trkpt lat="46.22377" lon="6.13499">
        <ele>422.7</ele>
        <time>2020-09-13T06:52:21.868Z</time>
      </trkpt>
      <trkpt lat="46.22401" lon="6.13453">
        <ele>423.9</ele>
        <time>2020-09-13T06:52:31.860Z</time>
      </trkpt>
      <trkpt lat="46.22411" lon="6.13436">
        <ele>424.7</ele>
        <time>2020-09-13T06:52:36.698Z</time>
      </trkpt>
      <trkpt lat="46.2242" lon="6.13422">
        <ele>425.8</ele>
        <time>2020-09-13T06:52:42.034Z</time>
      </trkpt>
      <trkpt lat="46.22431" lon="6.13407">
        <ele>429.1</ele>
        <time>2020-09-13T06:52:52.366Z</time>
      </trkpt>
      <trkpt lat="46.2244" lon="6.13395">
        <ele>430.6</ele>
        <time>2020-09-13T06:52:59.623Z</time>
      </trkpt>
      <trkpt lat="46.22459" lon="6.13371">
        <ele>432.3</ele>
        <time>2020-09-13T06:53:08.597Z</time>
      </trkpt>
      <trkpt lat="46.22467" lon="6.13358">
        <ele>432.7</ele>
        <time>2020-09-13T06:53:11.710Z</time>
      </trkpt>
      <trkpt lat="46.2248" lon="6.13338">
        <ele>432.9</ele>
        <time>2020-09-13T06:53:15.441Z</time>
      </trkpt>
      <trkpt lat="46.22492" lon="6.13319">
        <ele>435.8</ele>
        <time>2020-09-13T06:53:27.936Z</time>
      </trkpt>
      <trkpt lat="46.22499" lon="6.13307">
        <ele>436.6</ele>
        <time>2020-09-13T06:53:32.065Z</time>
      </trkpt>
      <trkpt lat="46.22514" lon="6.13283">
        <ele>436.6</ele>
        <time>2020-09-13T06:53:35.944Z</time>
      </trkpt>
      <trkpt lat="46.22525" lon="6.13266">
        <ele>436.9</ele>
        <time>2020-09-13T06:53:39.546Z</time>
      </trkpt>
      <trkpt lat="46.22542" lon="6.13244">
        <ele>439.8</ele>
        <time>2020-09-13T06:53:53.966Z</time>
      </trkpt>
      <trkpt lat="46.22563" lon="6.13218">
        <ele>440.8</ele>
        <time>2020-09-13T06:54:01.419Z</time>
      </trkpt>
      <trkpt lat="46.22596" lon="6.13177">
        <ele>445.4</ele>
        <time>2020-09-13T06:54:23.036Z</time>
      </trkpt>
      <trkpt lat="46.22639" lon="6.13121">
        <ele>449.1</ele>
        <time>2020-09-13T06:54:43.031Z</time>
      </trkpt>
      <trkpt lat="46.22697" lon="6.13033">
        <ele>453.8</ele>
        <time>2020-09-13T06:55:10.652Z</time>
      </trkpt>
      <trkpt lat="46.2276" lon="6.12936">
        <ele>455.3</ele>
        <time>2020-09-13T06:55:30.189Z</time>
      </trkpt>
      <trkpt lat="46.2283" lon="6.1283">
        <ele>456.1</ele>
        <time>2020-09-13T06:55:49.836Z</time>
      </trkpt>
      <trkpt lat="46.22901" lon="6.12723">
        <ele>457.9</ele>
        <time>2020-09-13T06:56:11.934Z</time>
      </trkpt>
      <trkpt lat="46.22934" lon="6.12673">
        <ele>458.7</ele>
        <time>2020-09-13T06:56:22.001Z</time>
      </trkpt>
      <trkpt lat="46.23001" lon="6.12569">
        <ele>459.5</ele>
        <time>2020-09-13T06:56:41.242Z</time>
      </trkpt>
      <trkpt lat="46.23034" lon="6.12521">
        <ele>460.4</ele>
        <time>2020-09-13T06:56:51.505Z</time>
      </trkpt>
      <trkpt lat="46.23052" lon="6.12498">
        <ele>460.4</ele>
        <time>2020-09-13T06:56:55.769Z</time>
      </trkpt>
      <trkpt lat="46.23077" lon="6.1247">
        <ele>460</ele>
        <time>2020-09-13T06:57:00.185Z</time>
      </trkpt>
      <trkpt lat="46.23111" lon="6.12431">
        <ele>460.3</ele>
        <time>2020-09-13T06:57:08.570Z</time>
      </trkpt>
      <trkpt lat="46.23131" lon="6.12415">
        <ele>458.3</ele>
        <time>2020-09-13T06:57:10.542Z</time>
      </trkpt>
      <trkpt lat="46.23184" lon="6.12375">
        <ele>457</ele>
        <time>2020-09-13T06:57:18.098Z</time>
      </trkpt>
      <trkpt lat="46.23196" lon="6.12363">
        <ele>456.2</ele>
        <time>2020-09-13T06:57:19.360Z</time>
      </trkpt>
      <trkpt lat="46.23206" lon="6.12353">
        <ele>455.6</ele>
        <time>2020-09-13T06:57:20.504Z</time>
      </trkpt>
      <trkpt lat="46.23218" lon="6.12343">
        <ele>454.7</ele>
        <time>2020-09-13T06:57:21.650Z</time>
      </trkpt>
      <trkpt lat="46.2323" lon="6.12336">
        <ele>453.5</ele>
        <time>2020-09-13T06:57:22.826Z</time>
      </trkpt>
      <trkpt lat="46.23249" lon="6.12328">
        <ele>450.2</ele>
        <time>2020-09-13T06:57:24.543Z</time>
      </trkpt>
      <trkpt lat="46.23263" lon="6.12323">
        <ele>448.6</ele>
        <time>2020-09-13T06:57:25.842Z</time>
      </trkpt>
      <trkpt lat="46.23277" lon="6.12321">
        <ele>447.9</ele>
        <time>2020-09-13T06:57:27.216Z</time>
      </trkpt>
      <trkpt lat="46.23289" lon="6.1232">
        <ele>447.5</ele>
        <time>2020-09-13T06:57:28.515Z</time>
      </trkpt>
      <trkpt lat="46.23302" lon="6.12321">
        <ele>447.2</ele>
        <time>2020-09-13T06:57:30.057Z</time>
      </trkpt>
      <trkpt lat="46.23318" lon="6.12323">
        <ele>447</ele>
        <time>2020-09-13T06:57:32.256Z</time>
      </trkpt>
      <trkpt lat="46.23333" lon="6.12327">
        <ele>447</ele>
        <time>2020-09-13T06:57:35.083Z</time>
      </trkpt>
      <trkpt lat="46.2335" lon="6.12334">
        <ele>448.2</ele>
        <time>2020-09-13T06:57:41.353Z</time>
      </trkpt>
      <trkpt lat="46.23363" lon="6.12341">
        <ele>448.7</ele>
        <time>2020-09-13T06:57:45.129Z</time>
      </trkpt>
      <trkpt lat="46.23379" lon="6.12352">
        <ele>448.8</ele>
        <time>2020-09-13T06:57:48.482Z</time>
      </trkpt>
      <trkpt lat="46.2339" lon="6.12359">
        <ele>448.9</ele>
        <time>2020-09-13T06:57:50.816Z</time>
      </trkpt>
      <trkpt lat="46.23398" lon="6.12366">
        <ele>448.9</ele>
        <time>2020-09-13T06:57:52.414Z</time>
      </trkpt>
      <trkpt lat="46.23404" lon="6.1237">
        <ele>449</ele>
        <time>2020-09-13T06:57:53.841Z</time>
      </trkpt>
      <trkpt lat="46.2341" lon="6.12372">
        <ele>449</ele>
        <time>2020-09-13T06:57:54.948Z</time>
      </trkpt>
      <trkpt lat="46.23416" lon="6.12372">
        <ele>448.9</ele>
        <time>2020-09-13T06:57:55.674Z</time>
      </trkpt>
      <trkpt lat="46.23421" lon="6.1237">
        <ele>445.6</ele>
        <time>2020-09-13T06:57:56.136Z</time>
      </trkpt>
      <trkpt lat="46.23426" lon="6.12368">
        <ele>445.5</ele>
        <time>2020-09-13T06:57:56.810Z</time>
      </trkpt>
      <trkpt lat="46.2343" lon="6.12363">
        <ele>445.3</ele>
        <time>2020-09-13T06:57:57.360Z</time>
      </trkpt>
      <trkpt lat="46.23433" lon="6.12358">
        <ele>445.1</ele>
        <time>2020-09-13T06:57:57.892Z</time>
      </trkpt>
      <trkpt lat="46.2344" lon="6.12343">
        <ele>444.8</ele>
        <time>2020-09-13T06:57:59.361Z</time>
      </trkpt>
      <trkpt lat="46.23446" lon="6.12328">
        <ele>442.2</ele>
        <time>2020-09-13T06:58:00.418Z</time>
      </trkpt>
      <trkpt lat="46.23449" lon="6.12317">
        <ele>441.8</ele>
        <time>2020-09-13T06:58:01.225Z</time>
      </trkpt>
      <trkpt lat="46.2345" lon="6.12306">
        <ele>441.4</ele>
        <time>2020-09-13T06:58:01.915Z</time>
      </trkpt>
      <trkpt lat="46.23449" lon="6.12296">
        <ele>441.2</ele>
        <time>2020-09-13T06:58:02.720Z</time>
      </trkpt>
      <trkpt lat="46.23445" lon="6.12284">
        <ele>441.1</ele>
        <time>2020-09-13T06:58:04.025Z</time>
      </trkpt>
      <trkpt lat="46.23439" lon="6.12268">
        <ele>441.1</ele>
        <time>2020-09-13T06:58:06.273Z</time>
      </trkpt>
      <trkpt lat="46.23433" lon="6.1225">
        <ele>441.3</ele>
        <time>2020-09-13T06:58:09.094Z</time>
      </trkpt>
      <trkpt lat="46.23422" lon="6.12214">
        <ele>439.4</ele>
        <time>2020-09-13T06:58:11.536Z</time>
      </trkpt>
      <trkpt lat="46.23418" lon="6.12207">
        <ele>439.3</ele>
        <time>2020-09-13T06:58:12.368Z</time>
      </trkpt>
      <trkpt lat="46.23414" lon="6.12202">
        <ele>441.3</ele>
        <time>2020-09-13T06:58:16.161Z</time>
      </trkpt>
      <trkpt lat="46.23408" lon="6.12197">
        <ele>441.3</ele>
        <time>2020-09-13T06:58:17.444Z</time>
      </trkpt>
      <trkpt lat="46.234" lon="6.12192">
        <ele>441.2</ele>
        <time>2020-09-13T06:58:18.572Z</time>
      </trkpt>
      <trkpt lat="46.23394" lon="6.1219">
        <ele>441.3</ele>
        <time>2020-09-13T06:58:19.835Z</time>
      </trkpt>
      <trkpt lat="46.2339" lon="6.12188">
        <ele>441.3</ele>
        <time>2020-09-13T06:58:20.701Z</time>
      </trkpt>
      <trkpt lat="46.23384" lon="6.12185">
        <ele>441.3</ele>
        <time>2020-09-13T06:58:21.744Z</time>
      </trkpt>
      <trkpt lat="46.23378" lon="6.1218">
        <ele>441.3</ele>
        <time>2020-09-13T06:58:23.099Z</time>
      </trkpt>
      <trkpt lat="46.23371" lon="6.12173">
        <ele>441.3</ele>
        <time>2020-09-13T06:58:24.619Z</time>
      </trkpt>
      <trkpt lat="46.2334" lon="6.12129">
        <ele>442.7</ele>
        <time>2020-09-13T06:58:35.786Z</time>
      </trkpt>
      <trkpt lat="46.23257" lon="6.12008">
        <ele>441.4</ele>
        <time>2020-09-13T06:58:52.422Z</time>
      </trkpt>
      <trkpt lat="46.23254" lon="6.12002">
        <ele>440.7</ele>
        <time>2020-09-13T06:58:52.833Z</time>
      </trkpt>
      <trkpt lat="46.23254" lon="6.11999">
        <ele>440.2</ele>
        <time>2020-09-13T06:58:53.049Z</time>
      </trkpt>
      <trkpt lat="46.23256" lon="6.11994">
        <ele>440.4</ele>
        <time>2020-09-13T06:58:54.330Z</time>
      </trkpt>
      <trkpt lat="46.2326" lon="6.11988">
        <ele>440.7</ele>
        <time>2020-09-13T06:58:56.156Z</time>
      </trkpt>
      <trkpt lat="46.23314" lon="6.1191">
        <ele>438.5</ele>
        <time>2020-09-13T06:59:04.869Z</time>
      </trkpt>
      <trkpt lat="46.23335" lon="6.11876">
        <ele>442.1</ele>
        <time>2020-09-13T06:59:22.064Z</time>
      </trkpt>
      <trkpt lat="46.23417" lon="6.11756">
        <ele>436.8</ele>
        <time>2020-09-13T06:59:33.408Z</time>
      </trkpt>
      <trkpt lat="46.23481" lon="6.11665">
        <ele>430.4</ele>
        <time>2020-09-13T06:59:41.432Z</time>
      </trkpt>
      <trkpt lat="46.23488" lon="6.11655">
        <ele>430.5</ele>
        <time>2020-09-13T06:59:43.415Z</time>
      </trkpt>
      <trkpt lat="46.23491" lon="6.11652">
        <ele>430.5</ele>
        <time>2020-09-13T06:59:44.139Z</time>
      </trkpt>
      <trkpt lat="46.23495" lon="6.1165">
        <ele>430.4</ele>
        <time>2020-09-13T06:59:44.620Z</time>
      </trkpt>
      <trkpt lat="46.235" lon="6.11652">
        <ele>430.6</ele>
        <time>2020-09-13T06:59:45.969Z</time>
      </trkpt>
      <trkpt lat="46.23505" lon="6.11657">
        <ele>430.3</ele>
        <time>2020-09-13T06:59:46.552Z</time>
      </trkpt>
      <trkpt lat="46.2351" lon="6.11662">
        <ele>430.3</ele>
        <time>2020-09-13T06:59:47.757Z</time>
      </trkpt>
      <trkpt lat="46.23676" lon="6.11871">
        <ele>428.1</ele>
        <time>2020-09-13T07:00:19.312Z</time>
      </trkpt>
      <trkpt lat="46.23732" lon="6.11936">
        <ele>428.4</ele>
        <time>2020-09-13T07:00:32.708Z</time>
      </trkpt>
      <trkpt lat="46.23739" lon="6.11943">
        <ele>428.4</ele>
        <time>2020-09-13T07:00:34.191Z</time>
      </trkpt>
      <trkpt lat="46.23745" lon="6.11947">
        <ele>428.4</ele>
        <time>2020-09-13T07:00:35.480Z</time>
      </trkpt>
      <trkpt lat="46.23752" lon="6.11951">
        <ele>427.2</ele>
        <time>2020-09-13T07:00:36.122Z</time>
      </trkpt>
      <trkpt lat="46.2376" lon="6.11953">
        <ele>427.1</ele>
        <time>2020-09-13T07:00:37.213Z</time>
      </trkpt>
      <trkpt lat="46.23767" lon="6.11953">
        <ele>427</ele>
        <time>2020-09-13T07:00:38.259Z</time>
      </trkpt>
      <trkpt lat="46.23775" lon="6.11951">
        <ele>426.8</ele>
        <time>2020-09-13T07:00:39.142Z</time>
      </trkpt>
      <trkpt lat="46.23781" lon="6.11948">
        <ele>426.7</ele>
        <time>2020-09-13T07:00:39.980Z</time>
      </trkpt>
      <trkpt lat="46.23787" lon="6.11942">
        <ele>426.5</ele>
        <time>2020-09-13T07:00:40.828Z</time>
      </trkpt>
      <trkpt lat="46.23793" lon="6.11932">
        <ele>426.2</ele>
        <time>2020-09-13T07:00:41.866Z</time>
      </trkpt>
      <trkpt lat="46.23795" lon="6.11923">
        <ele>426</ele>
        <time>2020-09-13T07:00:42.636Z</time>
      </trkpt>
      <trkpt lat="46.23797" lon="6.11912">
        <ele>424</ele>
        <time>2020-09-13T07:00:43.332Z</time>
      </trkpt>
      <trkpt lat="46.23796" lon="6.11901">
        <ele>423.9</ele>
        <time>2020-09-13T07:00:44.359Z</time>
      </trkpt>
      <trkpt lat="46.23795" lon="6.11893">
        <ele>423.8</ele>
        <time>2020-09-13T07:00:45.050Z</time>
      </trkpt>
      <trkpt lat="46.23791" lon="6.11882">
        <ele>423.7</ele>
        <time>2020-09-13T07:00:46.293Z</time>
      </trkpt>
      <trkpt lat="46.23787" lon="6.11871">
        <ele>423.5</ele>
        <time>2020-09-13T07:00:47.339Z</time>
      </trkpt>
      <trkpt lat="46.23781" lon="6.11863">
        <ele>423.4</ele>
        <time>2020-09-13T07:00:48.473Z</time>
      </trkpt>
      <trkpt lat="46.23775" lon="6.11854">
        <ele>423.4</ele>
        <time>2020-09-13T07:00:50.056Z</time>
      </trkpt>
      <trkpt lat="46.23726" lon="6.11797">
        <ele>424.1</ele>
        <time>2020-09-13T07:01:02.663Z</time>
      </trkpt>
      <trkpt lat="46.23556" lon="6.11587">
        <ele>426.1</ele>
        <time>2020-09-13T07:01:46.545Z</time>
      </trkpt>
      <trkpt lat="46.235" lon="6.11509">
        <ele>428.5</ele>
        <time>2020-09-13T07:02:06.160Z</time>
      </trkpt>
      <trkpt lat="46.23401" lon="6.11364">
        <ele>428.7</ele>
        <time>2020-09-13T07:02:31.889Z</time>
      </trkpt>
      <trkpt lat="46.23303" lon="6.1122">
        <ele>426</ele>
        <time>2020-09-13T07:02:49.717Z</time>
      </trkpt>
      <trkpt lat="46.23228" lon="6.11109">
        <ele>428.7</ele>
        <time>2020-09-13T07:03:14.846Z</time>
      </trkpt>
      <trkpt lat="46.23216" lon="6.11095">
        <ele>428.8</ele>
        <time>2020-09-13T07:03:17.782Z</time>
      </trkpt>
      <trkpt lat="46.23208" lon="6.11089">
        <ele>428.7</ele>
        <time>2020-09-13T07:03:19.073Z</time>
      </trkpt>
      <trkpt lat="46.23199" lon="6.11085">
        <ele>428.6</ele>
        <time>2020-09-13T07:03:20.293Z</time>
      </trkpt>
      <trkpt lat="46.23192" lon="6.11084">
        <ele>428.5</ele>
        <time>2020-09-13T07:03:21.377Z</time>
      </trkpt>
      <trkpt lat="46.23181" lon="6.11084">
        <ele>428.6</ele>
        <time>2020-09-13T07:03:23.540Z</time>
      </trkpt>
      <trkpt lat="46.23162" lon="6.11082">
        <ele>428.7</ele>
        <time>2020-09-13T07:03:27.147Z</time>
      </trkpt>
      <trkpt lat="46.23147" lon="6.11081">
        <ele>428.1</ele>
        <time>2020-09-13T07:03:28.588Z</time>
      </trkpt>
      <trkpt lat="46.23135" lon="6.11076">
        <ele>427.6</ele>
        <time>2020-09-13T07:03:29.932Z</time>
      </trkpt>
      <trkpt lat="46.23129" lon="6.11071">
        <ele>427.4</ele>
        <time>2020-09-13T07:03:30.640Z</time>
      </trkpt>
      <trkpt lat="46.23097" lon="6.11017">
        <ele>425.9</ele>
        <time>2020-09-13T07:03:36.210Z</time>
      </trkpt>
    </trkseg>
  </trk>
</gpx>